Time;durP1;ratioP1;P1;durP2;ratioP2;P2;SDS_P1;SDS_P2;PMS_P1;PMS_P2;Temp;Humidity;BMP_temperature;BMP_pressure;BME280_temperature;BME280_humidity;BME280_pressure;Samples;Min_cycle;Max_cycle;Signal;HPM_P1;HPM_P2
2021/11/08 00:01:06;;;;;;;;;22.50;19.00;;;;;8.23;79.44;101451.56;5013264;28;46175;-69
2021/11/08 00:03:35;;;;;;;;;27.00;21.75;;;;;8.27;79.82;101458.50;5015069;28;45408;-69
2021/11/08 00:06:04;;;;;;;;;25.00;20.25;;;;;8.27;79.44;101459.34;5014181;28;45251;-69
2021/11/08 00:08:30;;;;;;;;;28.00;19.25;;;;;8.26;79.77;101451.53;5013708;28;45550;-69
2021/11/08 00:10:56;;;;;;;;;20.75;20.00;;;;;8.21;79.68;101441.09;5024311;27;45439;-70
2021/11/08 00:13:22;;;;;;;;;23.25;19.00;;;;;8.16;79.47;101435.94;5017083;28;45447;-70
2021/11/08 00:16:01;;;;;;;;;21.25;18.00;;;;;8.16;79.42;101446.44;5016187;28;45450;-69
2021/11/08 00:20:55;;;;;;;;;21.75;18.75;;;;;8.11;79.87;101437.78;5013277;28;45330;-69
2021/11/08 00:23:21;;;;;;;;;26.25;20.25;;;;;8.06;79.73;101444.84;5013688;27;45994;-69
2021/11/08 00:25:47;;;;;;;;;22.50;20.00;;;;;8.10;80.18;101443.03;5013236;28;45447;-68
2021/11/08 00:28:15;;;;;;;;;29.25;18.75;;;;;8.08;80.15;101447.44;5014861;28;45434;-70
2021/11/08 00:30:42;;;;;;;;;24.50;19.75;;;;;8.06;80.01;101437.00;5015128;28;47188;-69
2021/11/08 00:33:08;;;;;;;;;23.25;19.50;;;;;8.05;80.04;101440.50;5017781;28;45238;-70
2021/11/08 00:35:35;;;;;;;;;19.75;14.00;;;;;8.02;80.03;101446.66;5013604;28;45285;-70
2021/11/08 00:38:01;;;;;;;;;24.00;19.25;;;;;8.01;80.55;101447.53;5013774;28;45410;-69
2021/11/08 00:40:26;;;;;;;;;24.00;19.00;;;;;7.99;80.27;101448.47;5098588;27;46163;-68
2021/11/08 00:42:53;;;;;;;;;21.50;19.25;;;;;7.95;80.58;101452.00;5013088;28;45383;-70
2021/11/08 00:45:19;;;;;;;;;21.75;16.50;;;;;7.95;80.50;101455.50;5013312;28;45427;-69
2021/11/08 00:47:45;;;;;;;;;25.25;18.50;;;;;7.88;80.47;101443.38;5012896;28;45339;-69
2021/11/08 00:50:11;;;;;;;;;23.00;19.25;;;;;7.92;80.91;101452.03;5011364;28;47408;-69
2021/11/08 00:52:37;;;;;;;;;24.50;16.50;;;;;7.87;80.57;101447.72;5015280;28;45268;-67
2021/11/08 00:55:03;;;;;;;;;28.00;19.00;;;;;7.87;80.81;101447.72;5015913;28;45278;-69
2021/11/08 00:57:33;;;;;;;;;21.75;17.50;;;;;7.81;81.04;101434.72;5018130;28;45500;-68
2021/11/08 00:59:59;;;;;;;;;19.50;15.25;;;;;7.84;80.88;101441.69;5018275;28;46536;-68
2021/11/08 01:02:28;;;;;;;;;23.75;19.25;;;;;7.77;80.86;101438.28;5016884;28;45332;-69
2021/11/08 01:04:54;;;;;;;;;22.25;17.75;;;;;7.73;80.61;101450.56;5018132;28;45456;-69
2021/11/08 01:07:20;;;;;;;;;24.50;16.25;;;;;7.73;81.10;101447.06;5019105;28;45494;-69
2021/11/08 01:09:46;;;;;;;;;26.00;18.50;;;;;7.75;81.03;101448.78;5102945;27;45541;-71
2021/11/08 01:12:13;;;;;;;;;20.75;17.50;;;;;7.70;81.32;101453.25;5015944;28;45342;-69
2021/11/08 01:14:39;;;;;;;;;18.50;16.00;;;;;7.72;81.43;101464.56;5015728;28;45396;-69
2021/11/08 01:17:06;;;;;;;;;26.00;19.25;;;;;7.70;81.40;101460.22;5017236;28;45251;-70
2021/11/08 01:19:33;;;;;;;;;18.75;14.00;;;;;7.69;81.34;101455.88;5019142;28;45218;-69
2021/11/08 01:22:06;;;;;;;;;23.25;18.25;;;;;7.66;82.01;101448.03;5020491;28;45262;-69
2021/11/08 01:24:41;;;;;;;;;22.00;17.75;;;;;7.65;81.53;101446.31;5015830;28;45295;-69
2021/11/08 01:27:07;;;;;;;;;26.00;15.25;;;;;7.63;82.20;101455.94;5015881;28;45428;-69
2021/11/08 01:29:33;;;;;;;;;21.25;15.00;;;;;7.60;82.23;101441.16;5017180;28;45392;-71
2021/11/08 01:32:00;;;;;;;;;20.25;18.25;;;;;7.59;81.89;101452.53;5017141;28;45334;-69
2021/11/08 01:34:30;;;;;;;;;16.75;16.00;;;;;7.53;82.14;101442.13;5015981;28;45364;-69
2021/11/08 01:36:59;;;;;;;;;17.00;12.25;;;;;7.53;82.01;101442.13;5016044;28;45469;-68
2021/11/08 01:39:31;;;;;;;;;20.75;14.75;;;;;7.51;82.03;101439.53;5014723;28;48652;-69
2021/11/08 01:42:02;;;;;;;;;22.00;18.00;;;;;7.49;82.21;101435.22;5015036;28;45396;-69
2021/11/08 01:44:28;;;;;;;;;20.00;17.00;;;;;7.52;82.27;101443.03;5016523;28;45320;-70
2021/11/08 01:46:56;;;;;;;;;26.75;18.50;;;;;7.50;82.14;101431.69;5018622;28;45308;-68
2021/11/08 01:49:21;;;;;;;;;20.25;17.00;;;;;7.48;82.89;101436.94;5016680;28;45457;-71
2021/11/08 01:51:47;;;;;;;;;21.50;18.00;;;;;7.48;82.73;101431.72;5015299;28;45233;-69
2021/11/08 01:54:12;;;;;;;;;18.25;17.75;;;;;7.38;82.25;101420.47;5015511;28;45333;-69
2021/11/08 01:56:38;;;;;;;;;18.75;17.00;;;;;7.45;83.14;101439.59;5083919;27;45497;-69
2021/11/08 01:59:04;;;;;;;;;22.25;19.25;;;;;7.42;82.30;101437.91;5015098;28;45436;-69
2021/11/08 02:01:29;;;;;;;;;26.75;20.00;;;;;7.41;82.67;101430.06;5017155;28;45253;-69
2021/11/08 02:03:55;;;;;;;;;23.75;20.50;;;;;7.35;82.36;101423.13;5015326;28;45420;-70
2021/11/08 02:06:20;;;;;;;;;16.00;15.00;;;;;7.41;82.28;101427.44;5104840;27;45551;-69
2021/11/08 02:08:46;;;;;;;;;21.50;15.25;;;;;7.41;81.88;101430.06;5014828;28;46033;-70
2021/11/08 02:11:12;;;;;;;;;21.25;14.00;;;;;7.39;82.87;101421.38;5015079;28;45384;-70
2021/11/08 02:13:38;;;;;;;;;21.75;16.50;;;;;7.39;82.35;101421.38;5015010;28;45360;-68
2021/11/08 02:16:06;;;;;;;;;22.00;14.00;;;;;7.37;82.75;101426.59;5015079;28;45531;-69
2021/11/08 02:18:34;;;;;;;;;20.75;17.75;;;;;7.36;83.03;101424.88;5014710;28;46365;-69
2021/11/08 02:21:02;;;;;;;;;19.75;15.50;;;;;7.34;82.89;101421.41;5014433;28;45325;-68
2021/11/08 02:23:28;;;;;;;;;18.75;16.00;;;;;7.35;82.72;101417.91;5014577;28;45369;-71
2021/11/08 02:25:56;;;;;;;;;24.50;19.50;;;;;7.33;83.37;101424.06;5015316;28;45443;-68
2021/11/08 02:28:22;;;;;;;;;20.25;15.75;;;;;7.30;83.52;101419.72;5014732;28;46070;-71
2021/11/08 02:30:53;;;;;;;;;20.75;15.75;;;;;7.29;83.06;101420.59;5015999;28;45975;-68
2021/11/08 02:33:19;;;;;;;;;16.75;13.75;;;;;7.28;82.69;101421.50;5014592;28;45348;-69
2021/11/08 02:35:45;;;;;;;;;21.25;16.25;;;;;7.25;83.25;101422.41;5016721;28;45296;-68
2021/11/08 02:38:23;;;;;;;;;20.50;17.25;;;;;7.24;83.30;101414.56;5015504;28;46307;-68
2021/11/08 02:40:50;;;;;;;;;23.75;19.25;;;;;7.21;83.00;101409.38;5015630;28;45394;-70
2021/11/08 02:43:20;;;;;;;;;18.75;16.25;;;;;7.20;83.58;101399.78;5015590;28;45421;-70
2021/11/08 02:45:47;;;;;;;;;17.25;15.50;;;;;7.22;83.00;101414.59;5014854;28;45449;-70
2021/11/08 02:48:12;;;;;;;;;13.00;12.25;;;;;7.20;82.85;101412.88;5015151;28;45629;-70
2021/11/08 02:50:38;;;;;;;;;18.75;15.50;;;;;7.18;83.09;101407.69;5015825;28;45448;-69
2021/11/08 02:53:04;;;;;;;;;19.50;13.50;;;;;7.20;83.11;101415.50;5015590;28;45333;-69
2021/11/08 02:55:30;;;;;;;;;19.75;16.25;;;;;7.18;82.83;101412.03;5015369;28;45249;-69
2021/11/08 02:57:56;;;;;;;;;18.75;14.00;;;;;7.16;83.28;101412.06;5014463;28;46187;-70
2021/11/08 03:00:23;;;;;;;;;19.50;16.25;;;;;7.15;83.36;101421.66;5015432;28;45464;-69
2021/11/08 03:02:50;;;;;;;;;19.25;16.00;;;;;7.09;83.58;101408.66;5014486;28;45286;-71
2021/11/08 03:05:17;;;;;;;;;19.75;16.25;;;;;7.12;83.92;101418.22;5014243;28;45290;-69
2021/11/08 03:07:43;;;;;;;;;20.75;17.50;;;;;7.07;84.21;101418.25;5013723;28;45306;-69
2021/11/08 03:10:13;;;;;;;;;20.25;16.50;;;;;7.09;83.45;101428.72;5013911;28;45317;-70
2021/11/08 03:12:40;;;;;;;;;21.75;15.00;;;;;7.07;84.19;101426.13;5016284;28;45395;-70
2021/11/08 03:15:32;;;;;;;;;20.50;18.25;;;;;7.03;84.00;101416.56;5014182;28;45265;-69
2021/11/08 03:18:28;;;;;;;;;23.25;20.50;;;;;7.05;84.14;101424.41;5023055;28;47316;-70
2021/11/08 03:20:46;;;;;;;;;21.00;16.75;;;;;7.03;84.14;101427.03;5013605;28;45259;-69
2021/11/08 03:23:12;;;;;;;;;28.00;17.25;;;;;6.99;83.96;101420.09;5013641;28;45234;-69
2021/11/08 03:25:46;;;;;;;;;21.50;17.50;;;;;7.02;83.29;101433.16;5014101;28;45242;-69
2021/11/08 03:28:12;;;;;;;;;17.50;15.00;;;;;7.01;84.33;101436.66;5013758;28;46511;-70
2021/11/08 03:30:42;;;;;;;;;23.75;15.75;;;;;7.01;84.79;101434.91;5015143;28;45238;-69
2021/11/08 03:33:10;;;;;;;;;19.75;16.00;;;;;7.01;85.21;101428.81;5013843;28;45381;-69
2021/11/08 03:35:36;;;;;;;;;16.00;14.75;;;;;7.04;84.87;101436.63;5013956;28;45212;-69
2021/11/08 03:38:06;;;;;;;;;19.00;15.25;;;;;7.04;84.59;101433.16;5013867;28;46274;-69
2021/11/08 03:40:35;;;;;;;;;19.75;14.00;;;;;7.06;84.41;101424.38;5013581;28;45395;-69
2021/11/08 03:43:04;;;;;;;;;22.50;17.00;;;;;7.08;84.17;101427.84;5020096;28;45232;-69
2021/11/08 03:45:30;;;;;;;;;25.25;14.00;;;;;7.09;84.42;101432.19;5097638;27;45325;-68
2021/11/08 03:47:58;;;;;;;;;18.25;14.50;;;;;7.10;83.90;101431.31;5017564;28;45400;-69
2021/11/08 03:50:26;;;;;;;;;26.25;18.75;;;;;7.10;84.53;101426.06;5013380;27;45499;-69
2021/11/08 03:52:51;;;;;;;;;16.00;12.00;;;;;7.10;83.92;101433.91;5013456;28;45236;-69
2021/11/08 03:55:19;;;;;;;;;15.50;14.00;;;;;7.11;84.08;101427.81;5013626;28;45524;-69
2021/11/08 03:57:48;;;;;;;;;22.50;16.00;;;;;7.13;83.79;101423.41;5012945;28;46426;-69
2021/11/08 04:00:16;;;;;;;;;14.75;14.75;;;;;7.13;83.65;101418.19;5015113;28;45391;-68
2021/11/08 04:02:42;;;;;;;;;14.00;11.25;;;;;7.12;84.21;101413.84;5014282;28;45348;-69
2021/11/08 04:05:09;;;;;;;;;16.00;12.25;;;;;7.14;85.16;101414.69;5013478;28;45548;-68
2021/11/08 04:07:35;;;;;;;;;20.00;14.00;;;;;7.14;83.95;101419.06;5013313;28;45344;-68
2021/11/08 04:10:00;;;;;;;;;18.50;14.00;;;;;7.14;84.28;101425.16;5013011;28;45368;-68
2021/11/08 04:12:28;;;;;;;;;21.25;14.25;;;;;7.15;84.40;101420.81;5013092;28;45489;-69
2021/11/08 04:14:55;;;;;;;;;23.00;17.00;;;;;7.15;84.89;101421.66;5013019;28;45502;-68
2021/11/08 04:17:24;;;;;;;;;21.50;14.75;;;;;7.16;84.88;101417.31;5014831;28;46951;-71
2021/11/08 04:19:50;;;;;;;;;19.00;16.75;;;;;7.16;84.96;101419.91;5013804;28;45233;-69
2021/11/08 04:22:15;;;;;;;;;18.75;12.75;;;;;7.13;85.20;101426.03;5015138;28;45228;-69
2021/11/08 04:24:43;;;;;;;;;24.00;20.50;;;;;7.13;84.69;101427.81;5020574;28;45515;-71
2021/11/08 04:27:09;;;;;;;;;22.50;17.75;;;;;7.09;84.47;101436.56;5014507;28;46359;-69
2021/11/08 04:29:35;;;;;;;;;26.00;19.75;;;;;7.07;84.52;101433.13;5015879;28;45455;-67
2021/11/08 04:32:01;;;;;;;;;22.25;19.75;;;;;6.93;84.43;101410.59;5015228;28;45290;-69
2021/11/08 04:34:41;;;;;;;;;22.25;15.75;;;;;7.03;84.08;101434.03;5017128;28;45599;-69
2021/11/08 04:37:38;;;;;;;;;24.00;17.50;;;;;7.01;84.91;101436.66;5016031;28;45481;-69
2021/11/08 04:42:58;;;;;;;;;20.75;18.50;;;;;6.96;85.38;101438.44;5015799;28;45266;-70
2021/11/08 05:31:37;;;;;;;;;17.75;12.50;;;;;7.77;82.54;101440.06;5018792;28;45820;-69
2021/11/08 05:34:03;;;;;;;;;19.25;14.00;;;;;7.81;82.39;101442.59;5019935;28;45385;-69
2021/11/08 05:36:29;;;;;;;;;10.25;8.00;;;;;7.83;81.72;101446.03;5019997;28;45437;-68
2021/11/08 05:38:54;;;;;;;;;13.75;12.25;;;;;7.85;82.11;101451.28;5016308;28;45578;-69
2021/11/08 05:41:19;;;;;;;;;14.75;14.25;;;;;7.85;82.21;101448.66;5016120;28;45410;-69
2021/11/08 05:43:45;;;;;;;;;17.50;14.00;;;;;7.82;82.42;101446.94;5015714;28;45346;-68
2021/11/08 05:46:11;;;;;;;;;17.25;14.25;;;;;7.84;82.36;101457.41;5015282;28;45727;-68
2021/11/08 05:48:37;;;;;;;;;16.00;12.75;;;;;7.83;82.37;101453.91;5016868;28;45259;-67
2021/11/08 05:51:03;;;;;;;;;21.00;15.25;;;;;7.79;82.30;101449.59;5015712;28;46864;-69
2021/11/08 05:53:29;;;;;;;;;18.00;15.25;;;;;7.82;81.78;101460.03;5015440;28;45338;-69
2021/11/08 05:56:07;;;;;;;;;17.75;13.50;;;;;7.83;82.51;101460.91;5015625;28;45295;-69
2021/11/08 06:50:28;;;;;;;;;21.00;14.50;;;;;7.75;81.70;101502.91;5014056;28;45344;-68
2021/11/08 06:53:00;;;;;;;;;19.75;16.75;;;;;7.78;80.78;101510.72;5017753;28;45395;-68
2021/11/08 06:55:26;;;;;;;;;14.00;12.00;;;;;7.74;81.72;101509.03;5016619;28;46353;-68
2021/11/08 06:58:00;;;;;;;;;19.75;16.25;;;;;7.75;81.83;101518.63;5100754;27;45348;-71
2021/11/08 07:00:25;;;;;;;;;19.25;17.00;;;;;7.77;80.89;101513.38;5016106;28;45286;-69
2021/11/08 07:02:51;;;;;;;;;15.75;14.75;;;;;7.75;80.92;101521.25;5014769;28;45660;-69
2021/11/08 07:05:16;;;;;;;;;18.00;17.25;;;;;7.69;81.52;101506.50;5014479;28;46029;-68
2021/11/08 07:07:42;;;;;;;;;27.25;17.50;;;;;7.71;81.46;101515.19;5015282;28;45364;-69
2021/11/08 07:10:08;;;;;;;;;19.00;14.25;;;;;7.77;81.46;101535.19;5015734;28;45352;-69
2021/11/08 07:12:33;;;;;;;;;20.75;15.75;;;;;7.73;80.64;101523.91;5015298;28;45480;-69
2021/11/08 07:14:59;;;;;;;;;20.25;16.50;;;;;7.72;80.75;101532.66;5014261;28;46089;-69
2021/11/08 07:17:25;;;;;;;;;18.50;13.25;;;;;7.72;81.87;101532.66;5014273;28;45455;-70
2021/11/08 07:19:50;;;;;;;;;23.25;16.25;;;;;7.66;81.70;101524.88;5015090;28;45456;-71
2021/11/08 07:22:16;;;;;;;;;21.50;17.75;;;;;7.75;81.84;101535.22;5015710;28;45356;-69
2021/11/08 07:24:41;;;;;;;;;21.50;17.50;;;;;7.78;81.12;101538.69;5014734;28;45288;-69
2021/11/08 07:27:07;;;;;;;;;21.50;18.00;;;;;7.78;80.80;101538.69;5016434;28;45152;-69
2021/11/08 07:29:37;;;;;;;;;22.25;18.25;;;;;7.76;81.18;101533.47;5015739;28;45384;-69
2021/11/08 07:32:03;;;;;;;;;29.25;23.75;;;;;7.85;81.61;101533.34;5015317;28;45756;-70
2021/11/08 07:34:29;;;;;;;;;19.25;19.00;;;;;7.93;81.37;101538.47;5014070;28;45653;-70
2021/11/08 07:36:54;;;;;;;;;20.50;15.00;;;;;7.99;80.83;101541.00;5016138;28;45408;-70
2021/11/08 07:39:20;;;;;;;;;22.75;18.25;;;;;8.04;80.75;101548.81;5017194;28;45590;-70
2021/11/08 07:41:46;;;;;;;;;17.00;14.25;;;;;8.08;80.20;101547.00;5014057;28;45226;-69
2021/11/08 07:44:12;;;;;;;;;19.00;15.25;;;;;8.07;81.03;101548.78;5013216;28;45990;-69
2021/11/08 07:46:37;;;;;;;;;25.75;20.50;;;;;8.10;80.49;101553.09;5013593;28;45249;-69
2021/11/08 07:49:03;;;;;;;;;21.75;17.00;;;;;8.15;80.36;101551.28;5014538;28;45331;-70
2021/11/08 07:51:28;;;;;;;;;21.25;17.75;;;;;8.18;80.02;101553.84;5017110;28;45246;-70
2021/11/08 07:53:54;;;;;;;;;21.00;15.75;;;;;8.20;79.73;101552.06;5013264;28;45345;-69
2021/11/08 07:56:20;;;;;;;;;23.75;20.00;;;;;8.22;nan;101552.06;5015198;28;45315;-72
2021/11/08 07:58:47;;;;;;;;;20.75;15.50;;;;;8.24;79.37;101545.91;5014009;28;45309;-70
2021/11/08 08:01:12;;;;;;;;;18.25;16.25;;;;;8.29;79.40;101559.78;5014314;28;45365;-69
2021/11/08 08:03:38;;;;;;;;;16.25;13.50;;;;;8.35;79.59;101571.97;5015046;28;45293;-71
2021/11/08 08:06:05;;;;;;;;;23.50;21.00;;;;;8.41;79.66;101560.50;5014219;28;45275;-69
2021/11/08 08:08:31;;;;;;;;;23.50;19.50;;;;;8.46;78.81;101561.28;5014053;28;45454;-68
2021/11/08 08:10:57;;;;;;;;;22.75;19.00;;;;;8.52;79.15;101556.00;5013926;28;45443;-71
2021/11/08 08:13:26;;;;;;;;;22.00;20.00;;;;;8.58;78.67;101558.53;5013252;28;46083;-71
2021/11/08 08:15:58;;;;;;;;;25.25;20.75;;;;;8.68;79.03;101566.25;5013446;28;45420;-69
2021/11/08 08:18:28;;;;;;;;;29.25;18.25;;;;;8.81;78.52;101569.53;5014308;27;45351;-69
2021/11/08 08:20:54;;;;;;;;;25.75;21.75;;;;;8.85;78.25;101566.84;5015199;28;45478;-71
2021/11/08 08:23:20;;;;;;;;;24.00;22.25;;;;;8.91;77.65;101571.09;5013483;28;46608;-69
2021/11/08 08:25:45;;;;;;;;;22.50;16.50;;;;;8.96;77.85;101577.13;5012988;28;45533;-70
2021/11/08 08:28:11;;;;;;;;;21.75;18.25;;;;;8.98;77.49;101574.50;5017692;28;45376;-69
2021/11/08 08:30:37;;;;;;;;;24.00;18.75;;;;;9.02;77.42;101577.03;5016206;28;45234;-70
2021/11/08 08:33:02;;;;;;;;;23.25;17.00;;;;;9.04;77.11;101579.63;5013656;28;45328;-68
2021/11/08 08:35:28;;;;;;;;;25.25;20.25;;;;;9.10;77.05;101583.91;5013312;28;45326;-70
2021/11/08 08:37:54;;;;;;;;;21.50;18.25;;;;;9.14;77.13;101581.19;5013517;28;45337;-69
2021/11/08 08:40:20;;;;;;;;;31.75;20.75;;;;;9.20;76.60;101578.47;5013283;28;45242;-68
2021/11/08 08:42:45;;;;;;;;;20.25;18.75;;;;;9.24;76.38;101579.28;5017125;28;45235;-70
2021/11/08 08:45:11;;;;;;;;;20.50;18.50;;;;;9.08;76.45;101551.59;5016085;28;45388;-69
2021/11/08 08:47:37;;;;;;;;;19.50;17.00;;;;;9.30;76.00;101583.53;5012795;28;45300;-69
2021/11/08 08:50:05;;;;;;;;;22.50;17.25;;;;;9.31;75.86;101588.78;5012775;28;45596;-70
2021/11/08 08:52:30;;;;;;;;;26.50;20.25;;;;;9.31;75.50;101577.38;5015431;28;45608;-69
2021/11/08 08:54:56;;;;;;;;;21.25;17.75;;;;;9.36;75.45;101591.28;5015631;28;45915;-70
2021/11/08 08:57:22;;;;;;;;;19.00;18.00;;;;;9.39;74.98;101582.50;5015740;28;45338;-73
2021/11/08 08:59:48;;;;;;;;;24.00;17.50;;;;;9.44;75.42;101591.16;5012901;27;45267;-70
2021/11/08 09:02:13;;;;;;;;;22.75;15.75;;;;;9.46;74.77;101592.84;5013192;28;46365;-69
2021/11/08 09:04:39;;;;;;;;;21.00;20.00;;;;;9.47;74.68;101588.47;5013009;28;45379;-69
2021/11/08 09:07:06;;;;;;;;;21.00;20.25;;;;;9.48;74.68;101591.06;5012061;28;45802;-70
2021/11/08 09:09:32;;;;;;;;;22.00;19.50;;;;;9.46;74.91;101595.47;5012936;28;45372;-69
2021/11/08 09:11:58;;;;;;;;;19.75;17.50;;;;;9.49;74.89;101584.06;5012148;28;45366;-69
2021/11/08 09:14:26;;;;;;;;;16.00;14.25;;;;;9.50;74.20;101589.25;5015221;28;45367;-70
2021/11/08 09:16:52;;;;;;;;;20.75;17.75;;;;;9.50;73.72;101585.78;5015204;28;45296;-70
2021/11/08 09:19:17;;;;;;;;;17.00;15.00;;;;;9.52;74.13;101588.38;5015995;28;45510;-69
2021/11/08 09:21:43;;;;;;;;;22.75;17.75;;;;;9.52;73.89;101583.13;5015914;28;45348;-69
2021/11/08 09:24:08;;;;;;;;;26.00;19.50;;;;;9.48;73.99;101580.56;5017086;28;45434;-70
2021/11/08 09:26:35;;;;;;;;;20.25;18.00;;;;;9.57;73.81;101584.78;5020653;28;45368;-69
2021/11/08 09:29:01;;;;;;;;;26.00;17.25;;;;;9.60;73.59;101586.47;5021325;28;45218;-69
2021/11/08 09:31:27;;;;;;;;;20.75;18.25;;;;;9.62;73.91;101588.16;5021039;28;45612;-70
2021/11/08 09:34:03;;;;;;;;;22.00;20.00;;;;;9.64;73.59;101585.53;5016934;28;45366;-71
2021/11/08 09:36:30;;;;;;;;;24.25;18.25;;;;;9.68;73.35;101587.19;5015964;28;45408;-69
2021/11/08 09:38:58;;;;;;;;;22.75;21.25;;;;;9.67;73.50;101581.97;5015841;28;45605;-71
2021/11/08 09:41:32;;;;;;;;;22.75;18.50;;;;;9.74;73.02;101588.81;5014790;28;46709;-70
2021/11/08 09:44:02;;;;;;;;;27.50;18.75;;;;;9.76;72.87;101590.53;5015163;28;45331;-70
2021/11/08 09:46:28;;;;;;;;;31.25;22.75;;;;;9.77;72.92;101586.13;5015536;28;45396;-70
2021/11/08 09:48:54;;;;;;;;;24.25;22.00;;;;;9.85;72.70;101583.34;5015404;28;45421;-69
2021/11/08 09:51:20;;;;;;;;;30.50;22.00;;;;;9.85;73.04;101581.56;5084914;27;47156;-72
2021/11/08 09:53:46;;;;;;;;;28.75;23.25;;;;;9.91;72.74;101591.94;5018106;28;45251;-71
2021/11/08 09:56:14;;;;;;;;;27.50;22.25;;;;;9.97;72.84;101590.97;5014977;28;45262;-68
2021/11/08 09:58:39;;;;;;;;;25.25;22.50;;;;;10.02;72.93;101596.13;5013803;28;45679;-69
2021/11/08 10:01:11;;;;;;;;;23.75;20.50;;;;;10.01;72.25;101583.88;5014279;28;46747;-68
2021/11/08 10:03:37;;;;;;;;;20.00;19.50;;;;;10.11;71.86;101592.44;5015449;28;45278;-69
2021/11/08 10:06:05;;;;;;;;;27.25;22.00;;;;;10.17;72.14;101584.41;5015117;28;45366;-71
2021/11/08 10:08:35;;;;;;;;;24.75;21.00;;;;;10.23;72.17;101589.53;5015332;28;45602;-68
2021/11/08 10:11:06;;;;;;;;;47.00;39.00;;;;;10.27;71.23;101591.19;5015097;28;45381;-70
2021/11/08 10:13:32;;;;;;;;;22.25;18.75;;;;;10.31;71.26;101584.09;5015441;28;45180;-68
2021/11/08 10:16:07;;;;;;;;;45.75;36.75;;;;;10.32;70.90;101583.22;5013874;28;45361;-69
2021/11/08 10:18:33;;;;;;;;;55.00;43.00;;;;;10.38;70.63;101586.53;5016322;27;45409;-70
2021/11/08 10:21:21;;;;;;;;;27.25;22.50;;;;;10.45;71.18;101573.28;5014691;28;46285;-68
2021/11/08 10:23:52;;;;;;;;;18.25;15.50;;;;;10.59;69.87;101586.13;5014729;28;45253;-68
2021/11/08 10:26:21;;;;;;;;;16.50;11.50;;;;;10.68;69.24;101593.78;5099469;27;45533;-70
2021/11/08 10:28:58;;;;;;;;;20.75;14.50;;;;;10.72;69.20;101579.66;5014875;28;45263;-69
2021/11/08 10:31:30;;;;;;;;;17.00;13.25;;;;;10.88;69.19;101587.16;5015983;28;46334;-70
2021/11/08 10:33:57;;;;;;;;;17.50;15.25;;;;;11.00;68.43;101586.84;5016876;28;45380;-71
2021/11/08 10:36:23;;;;;;;;;24.25;16.25;;;;;11.04;67.43;101583.22;5017841;28;45360;-69
2021/11/08 10:38:52;;;;;;;;;19.75;13.00;;;;;11.11;67.50;101589.22;5014807;28;45413;-69
2021/11/08 10:41:24;;;;;;;;;19.00;13.75;;;;;11.15;66.56;101584.75;5016300;28;46271;-71
2021/11/08 10:43:56;;;;;;;;;17.25;13.50;;;;;11.21;66.77;101581.94;5014528;28;45289;-71
2021/11/08 10:46:28;;;;;;;;;15.75;12.50;;;;;11.20;66.46;101577.59;5014086;28;45221;-70
2021/11/08 10:49:03;;;;;;;;;19.50;13.75;;;;;11.31;66.63;101580.78;5013223;28;45659;-68
2021/11/08 10:51:31;;;;;;;;;20.25;13.75;;;;;11.37;66.19;101579.72;5014791;28;45519;-68
2021/11/08 10:54:08;;;;;;;;;16.25;13.00;;;;;11.37;65.34;101575.34;5013861;28;45289;-70
2021/11/08 10:56:37;;;;;;;;;21.75;15.25;;;;;11.43;64.52;101579.56;5013914;28;45164;-70
2021/11/08 10:59:08;;;;;;;;;9.25;7.75;;;;;11.51;65.13;101580.22;5014386;28;45512;-68
2021/11/08 11:01:40;;;;;;;;;7.75;6.00;;;;;11.58;64.60;101569.50;5013626;28;47105;-71
2021/11/08 11:04:06;;;;;;;;;7.50;4.25;;;;;11.64;64.14;101570.19;5017415;28;45380;-69
2021/11/08 11:06:54;;;;;;;;;12.25;8.00;;;;;11.68;64.01;101565.72;5015719;28;45283;-69
2021/11/08 11:09:24;;;;;;;;;14.25;7.75;;;;;11.75;63.83;101569.91;5029466;28;45645;-69
2021/11/08 11:12:06;;;;;;;;;15.00;9.50;;;;;11.82;63.76;101565.28;5014237;28;46258;-70
2021/11/08 11:15:19;;;;;;;;;11.50;5.75;;;;;11.93;62.79;101576.38;5013082;28;45403;-70
2021/11/08 11:17:59;;;;;;;;;8.75;6.00;;;;;12.00;63.11;101569.19;5014661;28;45492;-70
2021/11/08 11:20:30;;;;;;;;;13.00;6.00;;;;;12.06;62.60;101566.38;5013808;28;45399;-69
2021/11/08 11:23:13;;;;;;;;;9.75;7.50;;;;;12.18;62.84;101567.75;5012342;28;46151;-69
2021/11/08 11:25:42;;;;;;;;;6.75;3.75;;;;;12.28;61.78;101576.25;5013577;28;45454;-69
2021/11/08 11:28:10;;;;;;;;;24.25;18.50;;;;;12.32;61.54;101569.97;5016988;28;45416;-71
2021/11/08 11:30:39;;;;;;;;;11.50;7.50;;;;;12.33;61.05;101558.50;5016517;28;45531;-70
2021/11/08 11:33:11;;;;;;;;;6.75;4.50;;;;;12.30;61.24;101563.88;5012555;28;47910;-71
2021/11/08 11:35:40;;;;;;;;;4.00;3.75;;;;;12.24;60.89;101551.75;5014129;28;45405;-70
2021/11/08 11:38:20;;;;;;;;;4.75;4.75;;;;;12.27;60.89;101558.69;5013510;28;45241;-68
2021/11/08 11:41:00;;;;;;;;;8.25;6.00;;;;;12.22;61.26;101540.41;5017637;28;45412;-70
2021/11/08 11:43:30;;;;;;;;;6.25;6.00;;;;;12.27;60.98;101543.75;5013451;28;45330;-71
2021/11/08 11:45:56;;;;;;;;;7.00;5.00;;;;;12.27;60.66;101554.28;5013617;28;45409;-69
2021/11/08 11:48:33;;;;;;;;;6.75;5.00;;;;;12.31;60.81;101544.50;5013854;28;45265;-71
2021/11/08 11:50:59;;;;;;;;;8.50;5.00;;;;;12.35;60.97;101542.63;5014098;28;45415;-69
2021/11/08 11:53:27;;;;;;;;;7.75;5.50;;;;;12.40;60.18;101536.28;5013734;27;45384;-70
2021/11/08 11:55:53;;;;;;;;;4.75;4.00;;;;;12.45;59.55;101543.19;5014718;28;45308;-69
2021/11/08 11:58:20;;;;;;;;;6.25;5.00;;;;;12.48;59.57;101537.81;5015719;28;45331;-70
2021/11/08 12:00:50;;;;;;;;;4.50;4.50;;;;;12.50;59.75;101533.34;5016288;28;45520;-70
2021/11/08 12:03:15;;;;;;;;;13.00;7.50;;;;;12.55;59.76;101534.94;5013170;28;45221;-69
2021/11/08 12:05:44;;;;;;;;;15.75;12.75;;;;;12.63;60.11;101529.38;5013405;28;45518;-69
2021/11/08 12:08:11;;;;;;;;;11.50;10.00;;;;;12.74;59.92;101530.81;5012583;28;45421;-70
2021/11/08 12:10:47;;;;;;;;;3.75;3.75;;;;;12.75;59.07;101521.97;5013251;28;45291;-71
2021/11/08 12:13:20;;;;;;;;;7.75;4.50;;;;;12.75;59.33;101529.91;5012569;28;45346;-70
2021/11/08 12:15:46;;;;;;;;;5.75;5.75;;;;;12.77;59.72;101533.34;5012815;28;45416;-68
2021/11/08 12:18:15;;;;;;;;;6.50;4.25;;;;;12.78;58.82;101525.34;5012190;28;45379;-71
2021/11/08 12:21:17;;;;;;;;;8.75;4.25;;;;;12.81;58.98;101519.97;5012552;28;45354;-69
2021/11/08 12:23:43;;;;;;;;;5.25;4.75;;;;;12.82;59.19;101512.94;5013223;28;45297;-72
2021/11/08 12:26:20;;;;;;;;;11.75;8.25;;;;;12.84;59.68;101511.09;5012695;28;45323;-70
2021/11/08 12:28:47;;;;;;;;;10.00;7.75;;;;;12.80;59.19;101512.13;5012379;28;45309;-69
2021/11/08 12:31:20;;;;;;;;;15.75;9.25;;;;;12.85;59.65;101510.19;5011233;27;45484;-69
2021/11/08 12:33:58;;;;;;;;;12.75;8.00;;;;;12.97;58.74;101515.03;5013041;28;45439;-71
2021/11/08 12:36:23;;;;;;;;;11.75;7.50;;;;;13.02;59.24;101508.72;5011135;28;45377;-70
2021/11/08 12:39:07;;;;;;;;;10.75;9.75;;;;;13.08;59.46;101497.94;5012784;28;45456;-71
2021/11/08 12:41:44;;;;;;;;;12.00;9.25;;;;;13.18;59.23;101490.53;5013505;28;45408;-70
2021/11/08 12:44:10;;;;;;;;;6.50;5.75;;;;;13.29;58.64;101486.59;5013510;28;45331;-70
2021/11/08 12:46:40;;;;;;;;;12.50;8.00;;;;;13.51;58.48;101495.53;5012863;28;45526;-70
2021/11/08 12:49:11;;;;;;;;;11.00;7.00;;;;;13.72;58.49;101486.75;5015820;28;45414;-70
2021/11/08 12:51:37;;;;;;;;;15.25;10.25;;;;;13.95;58.45;101494.72;5016249;27;45281;-70
2021/11/08 12:54:09;;;;;;;;;8.00;6.75;;;;;14.12;57.89;101489.63;5016090;28;46248;-69
2021/11/08 12:56:45;;;;;;;;;13.50;8.00;;;;;14.26;57.74;101486.38;5016552;28;45346;-69
2021/11/08 12:59:18;;;;;;;;;12.00;9.00;;;;;14.34;56.64;101475.50;5017438;28;45273;-69
2021/11/08 13:01:54;;;;;;;;;25.00;18.50;;;;;14.32;56.88;101474.69;5020409;28;45371;-70
2021/11/08 13:04:31;;;;;;;;;14.00;7.75;;;;;14.19;54.22;101486.72;5022475;28;46362;-70
2021/11/08 13:07:04;;;;;;;;;11.00;8.25;;;;;13.97;54.89;101485.78;5020137;28;45331;-70